Latest Weather Observations for Bairnsdale

IDV60801

Issued at 9:05 am EST Tuesday 2 September 2014 (issued every 30 minutes, with the page automatically refreshed every 10 minutes)

About weather observations | Map of weather stations | Latest weather observations for VIC | Other Formats
Station Details ID: 085279 Name: BAIRNSDALE AIRPORT Lat: -37.88 Lon: 147.57 Height: 49.4 m
Data from the previous 72 hours. | See also: Recent months at Bairnsdale
Date/Time
EST
Temp
°C
App
Temp
°C
Dew
Point
Rel
Hum
%
Delta-T
°C
Wind Press
QNH
hPa
Press
MSL
hPa
Rain
since 9 am
mm
Dir
 
Spd
km/h
Gust
km/h
Spd
kts
Gust
kts
02/09:00am 10.2 4.6 7.3 82 1.4 W 26 35 14 19 1014.8 1014.8 5.8
02/08:30am 9.7 4.8 7.0 83 1.3 W 22 33 12 18 1014.4 1014.4 5.8
02/08:00am 9.6 4.3 7.0 84 1.2 W 24 32 13 17 1014.2 1014.2 5.8
02/07:30am 9.4 4.5 7.0 85 1.1 W 22 33 12 18 1013.8 1013.8 5.8
02/07:00am 9.1 4.2 6.9 86 1.0 W 22 32 12 17 1013.2 1013.2 5.8
02/06:30am 9.1 4.6 6.9 86 1.0 W 20 28 11 15 1012.9 1012.9 5.8
02/06:00am 9.2 3.9 7.0 86 1.0 W 24 33 13 18 1012.4 1012.4 5.8
02/05:30am 9.2 4.8 7.3 88 0.9 W 20 28 11 15 1012.0 1012.0 5.8
02/05:00am 9.3 4.9 7.4 88 0.9 W 20 30 11 16 1011.7 1011.7 5.8
02/04:30am 9.5 4.8 7.6 88 0.9 W 22 32 12 17 1011.3 1011.3 5.8
02/04:00am 9.6 4.5 7.7 88 0.9 W 24 32 13 17 1011.2 1011.2 5.8
02/03:30am 9.6 4.9 7.9 89 0.8 W 22 33 12 18 1011.0 1011.0 5.8
02/03:00am 9.5 5.5 8.1 91 0.7 W 19 26 10 14 1011.0 1011.0 5.8
02/02:30am 9.5 5.8 8.1 91 0.7 W 17 22 9 12 1010.8 1010.8 5.8
02/02:00am 9.5 5.9 8.4 93 0.5 W 17 24 9 13 1011.0 1011.0 5.8
02/01:30am 9.4 5.9 8.6 95 0.4 W 17 22 9 12 1011.1 1011.1 5.8
02/01:00am 9.3 6.2 8.7 96 0.3 WNW 15 20 8 11 1011.0 1011.0 5.8
02/12:30am 9.3 6.2 8.7 96 0.3 WNW 15 20 8 11 1010.8 1010.8 5.8
02/12:00am 9.4 5.9 8.8 96 0.3 WNW 17 20 9 11 1010.9 1010.9 5.8
 
Date/Time
EST
Temp
°C
App
Temp
°C
Dew
Point
Rel
Hum
%
Delta-T
°C
Wind Press
QNH
hPa
Press
MSL
hPa
Rain
since 9 am
mm
Dir
 
Spd
km/h
Gust
km/h
Spd
kts
Gust
kts
01/11:30pm 9.3 6.2 8.7 96 0.3 WNW 15 19 8 10 1010.8 1010.8 5.6
01/11:00pm 9.3 5.7 8.4 94 0.4 W 17 22 9 12 1010.7 1010.7 5.2
01/10:30pm 9.4 5.8 8.3 93 0.5 W 17 22 9 12 1010.7 1010.7 4.4
01/10:00pm 9.5 5.8 8.1 91 0.7 W 17 22 9 12 1010.8 1010.8 3.8
01/09:30pm 9.7 5.5 8.3 91 0.7 W 20 28 11 15 1010.6 1010.6 3.4
01/09:00pm 9.9 6.3 8.5 91 0.7 W 17 24 9 13 1010.4 1010.4 3.0
01/08:30pm 10.2 7.1 9.0 92 0.6 W 15 20 8 11 1010.2 1010.2 2.6
01/08:00pm 10.4 6.7 9.3 93 0.5 W 19 24 10 13 1010.1 1010.1 2.6
01/07:30pm 10.6 6.9 9.4 92 0.6 WSW 19 24 10 13 1009.9 1009.9 2.4
01/07:00pm 10.9 7.0 8.8 87 1.0 WSW 19 24 10 13 1009.8 1009.8 2.0
01/06:30pm 11.3 7.8 8.9 85 1.2 W 17 20 9 11 1009.4 1009.4 1.2
01/06:00pm 11.2 8.9 8.9 86 1.1 W 11 13 6 7 1008.9 1008.9 0.8
01/05:30pm 11.8 7.9 9.5 86 1.2 SSW 20 24 11 13 1008.0 1008.1 0.4
01/05:00pm 12.4 8.0 9.1 80 1.7 SW 22 33 12 18 1007.9 1008.0 0.0
01/04:30pm 13.8 7.3 8.0 68 2.9 SW 32 39 17 21 1007.4 1007.5 0.0
01/04:00pm 14.8 9.4 7.8 63 3.5 SW 26 35 14 19 1006.8 1006.9 0.0
01/03:30pm 15.6 10.4 7.1 57 4.2 SW 24 30 13 16 1006.3 1006.4 0.0
01/03:00pm 16.8 10.7 6.6 51 5.0 SW 28 39 15 21 1006.0 1006.1 0.0
01/02:37pm 19.0 12.9 6.5 44 6.2 WSW 28 41 15 22 1005.7 1005.8 0.0
01/02:30pm 19.9 15.2 5.2 38 7.2 WNW 19 22 10 12 1005.3 1005.4 0.0
01/02:18pm 19.8 12.8 3.9 35 7.6 NNW 30 44 16 24 1005.2 1005.3 0.0
01/02:00pm 19.5 15.6 7.3 45 6.2 N 17 24 9 13 1005.2 1005.3 0.0
01/01:30pm 20.0 15.8 7.4 44 6.4 NE 19 32 10 17 1005.8 1005.9 0.0
01/01:00pm 18.6 15.9 8.8 53 5.1 NNE 13 22 7 12 1006.4 1006.5 0.0
01/12:30pm 17.0 14.2 8.4 57 4.4 NNE 13 17 7 9 1006.7 1006.8 0.0
01/12:00pm 15.9 14.2 8.2 60 3.9 ENE 7 11 4 6 1007.5 1007.6 0.0
01/11:30am 14.2 11.3 8.2 67 3.0 NE 13 17 7 9 1007.8 1007.9 0.0
01/11:00am 13.8 10.4 7.6 66 3.1 NE 15 19 8 10 1008.5 1008.5 0.0
01/10:30am 13.9 11.2 7.2 64 3.3 NE 11 13 6 7 1008.9 1008.9 0.0
01/10:00am 14.7 12.2 6.5 58 4.0 NNE 9 13 5 7 1009.5 1009.5 0.0
01/09:30am 15.0 12.5 6.6 57 4.1 N 9 13 5 7 1009.9 1009.9 0.0
01/09:00am 14.1 11.3 6.9 62 3.5 NNE 11 15 6 8 1009.9 1009.9 0.0
01/08:30am 14.4 11.9 6.5 59 3.8 NNE 9 13 5 7 1010.0 1010.0 0.0
01/08:00am 14.7 11.3 6.0 56 4.2 N 13 17 7 9 1010.0 1010.0 0.0
01/07:30am 14.9 9.6 5.1 52 4.6 N 22 39 12 21 1010.2 1010.2 0.0
01/07:00am 11.2 8.8 7.1 76 2.0 NE 9 13 5 7 1010.6 1010.6 0.0
01/06:30am 11.3 8.9 6.8 74 2.1 NNE 9 13 5 7 1010.5 1010.5 0.0
01/06:00am 11.9 9.3 6.2 68 2.7 ENE 9 11 5 6 1010.6 1010.6 0.0
01/05:30am 12.1 9.1 6.2 67 2.8 ENE 11 15 6 8 1010.5 1010.5 0.0
01/05:00am 12.2 9.3 6.7 69 2.6 ENE 11 17 6 9 1010.3 1010.3 0.0
01/04:30am 10.5 7.3 5.3 70 2.4 E 11 13 6 7 1010.5 1010.5 0.0
01/04:00am 8.1 6.0 4.1 76 1.7 E 4 7 2 4 1010.7 1010.7 0.0
01/03:30am 10.2 7.9 5.6 73 2.1 NE 7 11 4 6 1010.6 1010.6 0.0
01/03:00am 9.7 6.2 5.5 75 1.9 NNE 13 15 7 8 1010.5 1010.5 0.0
01/02:30am 9.0 5.8 5.2 77 1.7 NNE 11 13 6 7 1010.9 1010.9 0.0
01/02:00am 9.6 6.8 5.2 74 2.0 NNE 9 13 5 7 1011.4 1011.4 0.0
01/01:30am 10.1 7.3 6.8 80 1.6 NE 11 15 6 8 1011.9 1011.9 0.0
01/01:00am 9.9 6.9 6.1 77 1.8 NNE 11 15 6 8 1012.3 1012.3 0.0
01/12:30am 10.4 7.3 7.3 81 1.5 NNE 13 17 7 9 1012.6 1012.6 0.0
01/12:00am 9.0 7.0 7.3 89 0.8 NNE 7 9 4 5 1013.0 1013.0 0.0
 
Date/Time
EST
Temp
°C
App
Temp
°C
Dew
Point
Rel
Hum
%
Delta-T
°C
Wind Press
QNH
hPa
Press
MSL
hPa
Rain
since 9 am
mm
Dir
 
Spd
km/h
Gust
km/h
Spd
kts
Gust
kts
31/11:30pm 9.4 7.7 7.7 89 0.8 N 6 7 3 4 1013.4 1013.4 0.0
31/11:00pm 9.2 6.9 7.5 89 0.8 NW 9 11 5 6 1013.8 1013.8 0.0
31/10:30pm 9.5 7.5 7.3 86 1.0 N 7 9 4 5 1014.1 1014.1 0.0
31/10:00pm 9.9 7.8 6.8 81 1.5 N 7 11 4 6 1014.4 1014.4 0.0
31/09:30pm 10.4 8.0 7.1 80 1.6 N 9 11 5 6 1014.6 1014.6 0.0
31/09:00pm 10.8 8.6 7.7 81 1.5 N 9 11 5 6 1014.8 1014.8 0.0
31/08:30pm 11.2 9.0 7.9 80 1.6 ENE 9 11 5 6 1014.9 1014.9 0.0
31/08:00pm 12.2 10.1 8.1 76 2.0 ENE 9 11 5 6 1015.0 1015.0 0.0
31/07:30pm 12.1 9.4 7.4 73 2.3 ENE 11 13 6 7 1015.0 1015.0 0.0
31/07:00pm 13.5 10.5 7.9 69 2.8 ENE 13 17 7 9 1015.0 1015.0 0.0
31/06:30pm 12.7 9.9 7.0 68 2.8 E 11 13 6 7 1015.0 1015.0 0.0
31/06:00pm 13.4 10.7 7.4 67 2.9 E 11 13 6 7 1014.9 1014.9 0.0
31/05:30pm 14.5 12.1 8.7 68 2.9 E 11 15 6 8 1014.7 1014.7 0.0
31/05:00pm 16.7 13.9 8.7 59 4.1 E 13 15 7 8 1014.6 1014.6 0.0
31/04:30pm 18.2 16.0 9.3 56 4.7 ESE 11 15 6 8 1014.5 1014.5 0.0
31/04:00pm 19.1 15.7 7.5 47 5.9 E 15 19 8 10 1014.7 1014.7 0.0
31/03:30pm 20.0 16.5 7.4 44 6.4 ESE 15 19 8 10 1014.8 1014.8 0.0
31/03:00pm 20.2 17.3 6.5 41 6.9 E 11 15 6 8 1015.1 1015.2 0.0
31/02:30pm 20.2 17.3 6.5 41 6.9 E 11 17 6 9 1015.2 1015.3 0.0
31/02:00pm 19.9 17.2 7.3 44 6.4 ENE 11 15 6 8 1015.6 1015.7 0.0
31/01:30pm 20.2 18.5 8.2 46 6.2 NE 7 11 4 6 1016.1 1016.2 0.0
31/01:00pm 19.7 17.4 7.4 45 6.3 ENE 9 15 5 8 1016.6 1016.7 0.0
31/12:30pm 19.7 17.5 6.4 42 6.7 NNE 7 13 4 7 1017.2 1017.3 0.0
31/12:00pm 19.4 17.8 7.8 47 5.9 N 6 11 3 6 1017.7 1017.8 0.0
31/11:30am 18.3 15.9 6.8 47 5.8 NNW 9 13 5 7 1018.2 1018.3 0.0
31/11:00am 17.6 16.1 9.0 57 4.5 N 7 11 4 6 1018.6 1018.7 0.0
31/10:30am 15.8 13.8 8.5 62 3.7 NNW 9 11 5 6 1019.0 1019.1 0.0
31/10:00am 13.8 11.8 8.8 72 2.5 NNW 9 11 5 6 1019.5 1019.6 0.0
31/09:30am 11.8 10.1 8.3 79 1.7 N 7 11 4 6 1019.7 1019.8 0.0
31/09:00am 10.0 8.6 9.5 97 0.2 NNW 7 9 4 5 1020.0 1020.1 0.0
31/08:30am 8.3 6.6 8.2 99 0.0 NNW 7 9 4 5 1020.2 1020.3 0.0
31/08:00am 7.2 4.8 7.1 99 0.0 NNW 9 11 5 6 1020.1 1020.2 0.0
31/07:40am 6.2 3.6 6.1 99 0.0 NW 9 9 5 5 1020.0 1020.1 0.0
31/07:30am 4.9 2.4 4.8 99 0.0 NW 7 9 4 5 1020.1 1020.2 0.0
31/07:00am 3.6 0.5 3.5 99 0.0 NNW 9 9 5 5 1019.8 1019.9 0.0
31/06:30am 2.9 0.2 2.8 99 0.0 NNW 6 6 3 3 1019.8 1019.9 0.0
31/06:00am 2.4 -0.6 2.3 99 0.0 N 7 7 4 4 1019.7 1019.8 0.0
31/05:30am 2.8 0.1 2.7 99 0.0 NNW 6 7 3 4 1019.6 1019.7 0.0
31/05:00am 4.0 1.5 3.9 99 0.0 NNW 6 7 3 4 1019.4 1019.5 0.0
31/04:30am 3.7 1.2 3.6 99 0.0 WNW 6 6 3 3 1019.5 1019.6 0.0
31/04:00am 2.0 -0.1 1.9 99 0.0 NW 2 7 1 4 1019.5 1019.6 0.0
31/03:30am 4.2 2.1 4.1 99 0.0 N 4 6 2 3 1019.7 1019.8 0.0
31/03:00am 3.9 1.2 3.8 99 0.0 N 7 9 4 5 1019.8 1019.9 0.0
31/02:30am 3.9 1.2 3.8 99 0.0 N 7 9 4 5 1020.1 1020.2 0.0
31/02:23am 4.3 1.7 4.2 99 0.0 N 7 9 4 5 1020.1 1020.2 0.0
31/02:00am 4.0 1.3 3.9 99 0.0 NNW 7 7 4 4 1020.6 1020.7 0.0
31/01:30am 4.3 1.3 4.2 99 0.0 NNW 9 11 5 6 1021.2 1021.3 0.0
31/01:11am 4.5 1.2 4.4 99 0.0 NNW 11 11 6 6 1021.4 1021.5 0.0
31/01:00am 4.8 1.9 4.5 98 0.1 NNW 9 11 5 6 1021.5 1021.6 0.0
31/12:45am 5.3 2.5 5.2 99 0.0 NW 9 11 5 6 1021.6 1021.7 0.0
31/12:30am 6.7 4.2 6.6 99 0.0 WNW 9 11 5 6 1021.8 1021.9 0.0
31/12:00am 7.0 3.8 6.9 99 0.0 WNW 13 15 7 8 1022.1 1022.2 0.0
 
Date/Time
EST
Temp
°C
App
Temp
°C
Dew
Point
Rel
Hum
%
Delta-T
°C
Wind Press
QNH
hPa
Press
MSL
hPa
Rain
since 9 am
mm
Dir
 
Spd
km/h
Gust
km/h
Spd
kts
Gust
kts
30/11:30pm 6.4 3.4 6.1 98 0.1 WNW 11 13 6 7 1022.3 1022.4 0.0
30/11:16pm 6.8 3.9 6.5 98 0.1 WNW 11 13 6 7 1022.4 1022.5 0.0
30/11:00pm 6.9 3.6 6.6 98 0.1 NW 13 15 7 8 1022.4 1022.5 0.0
30/10:30pm 6.6 4.4 6.0 96 0.3 NW 7 9 4 5 1022.5 1022.6 0.0
30/10:00pm 6.2 4.0 5.3 94 0.4 NNE 6 6 3 3 1022.8 1022.9 0.0
30/09:54pm 6.6 4.5 5.7 94 0.4 NE 6 6 3 3 1022.8 1022.9 0.0
30/09:30pm 7.9 6.0 6.7 92 0.6 ENE 6 7 3 4 1022.9 1023.0 0.0
30/09:22pm 8.2 6.4 7.0 92 0.6 ENE 6 7 3 4 1023.0 1023.1 0.0
30/09:00pm 10.3 8.5 9.4 94 0.4 ENE 9 11 5 6 1023.1 1023.2 0.0
30/08:30pm 9.9 7.9 8.7 92 0.6 ENE 9 11 5 6 1023.1 1023.2 0.0
30/08:00pm 10.2 8.6 8.8 91 0.7 ENE 7 9 4 5 1023.2 1023.3 0.0
30/07:30pm 10.5 8.5 8.8 89 0.8 E 9 13 5 7 1023.3 1023.4 0.0
30/07:00pm 11.2 8.6 9.5 89 0.9 E 13 17 7 9 1023.3 1023.4 0.0
30/06:30pm 11.9 9.0 9.8 87 1.1 E 15 20 8 11 1023.1 1023.2 0.0
30/06:00pm 12.5 8.7 9.9 84 1.3 E 20 26 11 14 1023.0 1023.1 0.0
30/05:30pm 13.0 8.7 9.4 79 1.8 E 22 28 12 15 1023.0 1023.1 0.0
30/05:00pm 13.7 8.6 9.2 74 2.3 E 26 33 14 18 1023.0 1023.1 0.0
30/04:30pm 14.4 8.9 9.0 70 2.8 E 28 37 15 20 1023.1 1023.2 0.0
30/04:00pm 14.9 10.0 8.4 65 3.3 E 24 37 13 20 1023.1 1023.2 0.0
30/03:30pm 15.4 10.5 8.6 64 3.5 E 24 35 13 19 1023.1 1023.2 0.0
30/03:00pm 15.7 10.5 8.7 63 3.6 ESE 26 33 14 18 1023.3 1023.4 0.0
30/02:30pm 15.8 10.5 8.3 61 3.8 ESE 26 35 14 19 1023.5 1023.6 0.0
30/02:00pm 16.0 11.0 8.2 60 3.9 ESE 24 30 13 16 1023.8 1023.9 0.0
30/01:30pm 16.1 11.5 8.1 59 4.0 ESE 22 32 12 17 1024.1 1024.2 0.0
30/01:00pm 16.2 12.0 8.2 59 4.0 E 20 30 11 16 1024.6 1024.7 0.0
30/12:30pm 15.8 11.4 7.3 57 4.2 E 20 26 11 14 1025.3 1025.4 0.0
30/12:00pm 15.1 10.7 7.4 60 3.8 E 20 26 11 14 1025.9 1026.0 0.0
30/11:30am 14.5 10.5 8.2 66 3.2 E 19 26 10 14 1026.5 1026.6 0.0
30/11:00am 13.2 9.5 7.9 70 2.6 E 17 22 9 12 1026.9 1027.0 0.0
30/10:30am 12.9 10.2 8.8 76 2.1 E 13 17 7 9 1027.4 1027.5 0.0
30/10:00am 11.4 10.5 11.2 99 0.1 ENE 7 11 4 6 1027.8 1027.9 0.0
30/09:30am 10.3 9.3 10.3 100 0.0 ENE 6 7 3 4 1028.2 1028.3 0.0

Other Formats:

Comma delimited format used in spreadsheet applications
http://www.bom.gov.au/fwo/IDV60801/IDV60801.94912.axf

JavaScript Object Notation format (JSON) in row-major order
http://www.bom.gov.au/fwo/IDV60801/IDV60801.94912.json